Terminal Aerodrome Forecast
Issued by NWS Grand Forks, ND

Home | Current Version | Previous Version | Graphics & Text | Print | Product List | Glossary On
Versions: 1 2 3 4 5 6 7 8 9 10 11 12 13 14 15 16 17 18 19 20 21 22 23 24
000
FTUS43 KFGF 202314 AAF
TAFGFK
TAF AMD
KGFK 202314Z 2023/2118 30010KT P6SM BKN080
      TEMPO 2100/2102 1SM BR BKN008
     FM210500 24006KT 1/2SM FG SCT020
     FM211300 18008KT 1SM BR BKN025
     FM211400 19009KT 3SM BR SCT035
     FM211700 22010KT P6SM SCT070=

USA.gov is the U.S. government's official web portal to all federal, state and local government web resources and services.